Maestro Sun — V7ET2 — position and weather

sailwx.info

Track history (hours):
 
Tides and Currents Weather Stations Pressure Air Temp Water Temp Dewpoint Dewpoint Depression Visibility Wind Speed Wind Dir Waves Ship Positions

Maestro Sun

Last reported at 2018-Jun-19 00:54 UTC. Time now 2018-Jun-19 04:39 UTC.
Position N 36°08' W 005°26'.

; draft 4.7 m.

Type: Ship (hazmat cat A). MMSI: 538001857.

Date/timePositionNaut miles runAvg speedWind from/ knotsBaromVisibWave heightAir tempDewpointWater temp
2018-Jun-19 00:54N 36°08' W 005°26'0 0.0
2018-Jun-18 23:18N 36°08' W 005°26'0 0.0
2018-Jun-18 21:50N 36°08' W 005°26'4 2.9
2018-Jun-18 20:34N 36°05' W 005°24'114.8
2018-Jun-18 20:30N 36°04' W 005°24'714.8
2018-Jun-18 20:00N 35°57' W 005°28'3 0.5
2018-Jun-18 14:50N 35°57' W 005°31'513.5
2018-Jun-18 14:30N 35°60' W 005°27'4 0.5
2018-Jun-18 06:23N 36°02' W 005°24'514.0
2018-Jun-18 06:00N 35°58' W 005°27'6 1.0
2018-Jun-18 00:02N 35°53' W 005°31'1 5.8
2018-Jun-17 23:56N 35°54' W 005°31'4 9.8
2018-Jun-17 23:30N 35°58' W 005°29'611.6
2018-Jun-17 23:00N 36°02' W 005°25'6 1.6
2018-Jun-17 19:30N 36°08' W 005°26'0 0.0
2018-Jun-17 19:00N 36°08' W 005°26'0 0.0
2018-Jun-17 15:06N 36°08' W 005°26'0 0.0
2018-Jun-17 14:54N 36°08' W 005°26'0 0.0
2018-Jun-17 14:30N 36°08' W 005°26'0 0.0
2018-Jun-17 14:00N 36°08' W 005°26'0 0.0
2018-Jun-17 13:24N 36°08' W 005°26'0 0.0
2018-Jun-17 13:00N 36°08' W 005°26'0 0.0
2018-Jun-17 12:30N 36°08' W 005°26'0 0.0
2018-Jun-17 08:48N 36°08' W 005°26'0 0.0
2018-Jun-17 08:30N 36°08' W 005°26'0 0.0
2018-Jun-17 08:00N 36°08' W 005°26'0 0.0
2018-Jun-17 07:30N 36°08' W 005°26'0 0.0
2018-Jun-17 06:48N 36°08' W 005°26'0 0.0
2018-Jun-17 06:30N 36°08' W 005°26'0 0.0
2018-Jun-17 06:00N 36°08' W 005°26'0 0.0
2018-Jun-17 05:24N 36°08' W 005°26'0 0.0
2018-Jun-17 05:00N 36°08' W 005°26'0 0.0
2018-Jun-17 04:24N 36°08' W 005°26'0 0.0
2018-Jun-17 03:54N 36°08' W 005°26'0 0.0
2018-Jun-17 03:30N 36°08' W 005°26'0 0.0
2018-Jun-17 03:00N 36°08' W 005°26'0 0.0
2018-Jun-17 02:30N 36°08' W 005°26'0 0.0
2018-Jun-17 02:00N 36°08' W 005°26'0 0.0
2018-Jun-17 01:24N 36°08' W 005°26'0 0.0
2018-Jun-17 01:00N 36°08' W 005°26'0 0.0
2018-Jun-17 00:30N 36°08' W 005°26'0 0.0
2018-Jun-17 00:00N 36°08' W 005°26'0 0.0
2018-Jun-16 23:30N 36°08' W 005°26'0 0.0
2018-Jun-16 23:00N 36°08' W 005°26'0 0.0
2018-Jun-16 22:30N 36°08' W 005°26'0 0.0
2018-Jun-16 22:00N 36°08' W 005°26'0 0.0
2018-Jun-16 21:30N 36°08' W 005°26'0 0.0
2018-Jun-16 20:54N 36°08' W 005°26'0 0.0
2018-Jun-16 20:30N 36°08' W 005°26'0 0.0
2018-Jun-16 20:00N 36°08' W 005°26'0 0.0
2018-Jun-16 19:30N 36°08' W 005°26'0 0.0
2018-Jun-16 15:24N 36°08' W 005°26'5 0.6
2018-Jun-16 06:56N 36°03' W 005°23'9 1.0
2018-Jun-15 22:29N 35°56' W 005°30'612.4
2018-Jun-15 22:00N 36°01' W 005°26'611.7
2018-Jun-15 21:30N 36°07' W 005°24'2 4.2
2018-Jun-15 21:00N 36°08' W 005°26'0 0.0
2018-Jun-15 20:24N 36°08' W 005°26'0 0.0
2018-Jun-15 19:48N 36°08' W 005°26'0 0.0
2018-Jun-15 19:24N 36°08' W 005°26'0 0.0
2018-Jun-15 19:00N 36°08' W 005°26'0 0.0
2018-Jun-15 18:18N 36°08' W 005°26'0 0.0
2018-Jun-15 17:48N 36°08' W 005°26'5 0.9
2018-Jun-15 12:20N 36°04' W 005°22'513.3
2018-Jun-15 12:00N 35°59' W 005°25'5 1.0
2018-Jun-15 06:55N 35°56' W 005°30'511.0
2018-Jun-15 06:30N 36°00' W 005°27'610.5
2018-Jun-15 05:56N 36°06' W 005°23'3 7.8
2018-Jun-15 05:30N 36°08' W 005°26'0 1.0
2018-Jun-15 05:00N 36°08' W 005°26'0 0.0
2018-Jun-15 04:28N 36°08' W 005°26'0 0.0
2018-Jun-15 03:58N 36°08' W 005°26'0 0.0
2018-Jun-15 03:28N 36°08' W 005°26'0 0.0
2018-Jun-15 02:58N 36°08' W 005°26'0 0.0
2018-Jun-15 02:28N 36°08' W 005°26'0 0.0
2018-Jun-15 01:58N 36°08' W 005°26'0 0.0
2018-Jun-15 01:28N 36°08' W 005°26'0 0.0
2018-Jun-15 00:58N 36°08' W 005°26'0 0.0
2018-Jun-15 00:28N 36°08' W 005°26'1 1.6
2018-Jun-15 00:00N 36°08' W 005°26'4 8.8
2018-Jun-14 23:30N 36°04' W 005°24'714.7
2018-Jun-14 23:00N 35°58' W 005°28'3 0.3
2018-Jun-14 13:46N 35°56' W 005°30'311.5
2018-Jun-14 13:30N 35°59' W 005°28'5 9.9
2018-Jun-14 13:00N 36°03' W 005°24'611.9
2018-Jun-14 12:30N 36°09' W 005°25'5 0.8
2018-Jun-14 06:17N 36°04' W 005°23'414.5
2018-Jun-14 06:01N 35°60' W 005°24'6 0.7
2018-Jun-13 21:23N 35°56' W 005°31'411.5
2018-Jun-13 21:00N 35°60' W 005°27'510.5
2018-Jun-13 20:30N 36°05' W 005°24'4 8.3
2018-Jun-13 20:00N 36°08' W 005°26'6 0.9
2018-Jun-13 12:48N 36°02' W 005°23'515.3
2018-Jun-13 12:30N 35°58' W 005°26'6 1.0
2018-Jun-13 06:04N 35°54' W 005°31'1 5.5
2018-Jun-13 05:50N 35°55' W 005°31'410.7
2018-Jun-13 05:30N 35°58' W 005°29'5 9.5
2018-Jun-13 05:00N 36°02' W 005°25'612.2
2018-Jun-13 04:30N 36°08' W 005°24'2 3.1
2018-Jun-13 04:00N 36°08' W 005°26'0 0.0
2018-Jun-13 03:28N 36°08' W 005°26'0 0.0
2018-Jun-13 02:46N 36°08' W 005°26'0 0.0
2018-Jun-13 02:28N 36°08' W 005°26'0 0.0
2018-Jun-13 01:58N 36°08' W 005°26'0 0.0
2018-Jun-13 01:28N 36°08' W 005°26'0 0.0
2018-Jun-13 00:58N 36°08' W 005°26'0 0.0
2018-Jun-13 00:28N 36°08' W 005°26'0 0.0
2018-Jun-12 23:58N 36°08' W 005°26'5 3.7
2018-Jun-12 22:35N 36°03' W 005°23'115.9
2018-Jun-12 22:30N 36°02' W 005°24'8 0.9
2018-Jun-12 14:05N 35°56' W 005°30'111.6
2018-Jun-12 14:00N 35°57' W 005°29'610.4
2018-Jun-12 13:28N 36°02' W 005°25'6 0.7
2018-Jun-12 05:19N 36°08' W 005°26'0 0.0
2018-Jun-12 04:58N 36°08' W 005°26'0 0.0
2018-Jun-12 04:04N 36°08' W 005°26'0 0.0
2018-Jun-12 03:58N 36°08' W 005°26'0 0.0
2018-Jun-12 03:25N 36°08' W 005°26'0 0.0
2018-Jun-12 02:58N 36°08' W 005°26'0 0.0
2018-Jun-12 02:28N 36°08' W 005°26'0 0.0
2018-Jun-12 01:58N 36°08' W 005°26'0 0.0
2018-Jun-12 01:28N 36°08' W 005°26'0 0.0
2018-Jun-12 00:52N 36°08' W 005°26'0 0.0
2018-Jun-12 00:11N 36°08' W 005°26'0 0.0
2018-Jun-11 23:59N 36°08' W 005°26'0 0.3
2018-Jun-11 23:30N 36°08' W 005°26'1 2.7
2018-Jun-11 22:59N 36°08' W 005°24'612.3
2018-Jun-11 22:30N 36°03' W 005°24'6 0.4
2018-Jun-11 06:42N 36°08' W 005°24'510.7
2018-Jun-11 06:14N 36°03' W 005°23'415.7
2018-Jun-11 06:00N 36°00' W 005°24'816.2
2018-Jun-11 05:30N 35°54' W 005°31'3 0.3
2018-Jun-10 21:36N 35°56' W 005°30'112.6
2018-Jun-10 21:30N 35°57' W 005°30'611.4
2018-Jun-10 21:00N 36°02' W 005°25'612.6
2018-Jun-10 20:30N 36°08' W 005°24'1 2.4
2018-Jun-10 19:57N 36°08' W 005°26'0 0.0
2018-Jun-10 19:27N 36°08' W 005°26'0 0.0
2018-Jun-10 18:57N 36°08' W 005°26'0 0.0
2018-Jun-10 18:24N 36°08' W 005°26'0 0.0
2018-Jun-10 17:57N 36°08' W 005°26'0 0.0
2018-Jun-10 17:12N 36°08' W 005°26'0 0.0
2018-Jun-10 16:57N 36°08' W 005°26'0 0.0
2018-Jun-10 16:27N 36°08' W 005°26'0 0.0
2018-Jun-10 14:57N 36°08' W 005°26'2 2.9
2018-Jun-10 14:26N 36°09' W 005°25'3 2.2
2018-Jun-10 13:07N 36°07' W 005°23'2 8.9
2018-Jun-10 12:56N 36°05' W 005°23'614.7
2018-Jun-10 12:30N 35°59' W 005°25'7 1.1
2018-Jun-10 06:10N 35°54' W 005°31'1 2.9
2018-Jun-10 05:52N 35°55' W 005°31'2 6.4
2018-Jun-10 05:30N 35°57' W 005°30'510.9
2018-Jun-10 05:00N 36°00' W 005°25'611.8
2018-Jun-10 04:30N 36°06' W 005°24'2 4.1
2018-Jun-10 04:00N 36°08' W 005°26'0 0.0
2018-Jun-10 03:27N 36°08' W 005°26'0 0.0
2018-Jun-10 02:57N 36°08' W 005°26'0 0.0
2018-Jun-10 02:27N 36°08' W 005°26'0 0.0
2018-Jun-10 01:57N 36°08' W 005°26'0 0.0
2018-Jun-10 01:27N 36°08' W 005°26'0 0.0
2018-Jun-10 00:57N 36°08' W 005°26'0 0.0
2018-Jun-10 00:27N 36°08' W 005°26'0 0.0
2018-Jun-09 23:57N 36°08' W 005°26'0 0.0
2018-Jun-09 23:30N 36°08' W 005°26'2 3.0
2018-Jun-09 23:00N 36°08' W 005°24'713.8
2018-Jun-09 22:30N 36°01' W 005°25'9 1.1
2018-Jun-09 14:25N 35°54' W 005°31'3 5.4
2018-Jun-09 13:56N 35°56' W 005°30'511.4
2018-Jun-09 13:30N 36°00' W 005°27'611.2
2018-Jun-09 13:00N 36°05' W 005°24'3 6.2
2018-Jun-09 12:30N 36°08' W 005°26'0 0.3
2018-Jun-09 11:59N 36°08' W 005°26'0 0.0
2018-Jun-09 11:29N 36°08' W 005°26'0 0.0
2018-Jun-09 10:56N 36°08' W 005°26'0 0.0
2018-Jun-09 10:29N 36°08' W 005°26'0 0.0
2018-Jun-09 09:59N 36°08' W 005°26'0 0.0
2018-Jun-09 06:17N 36°08' W 005°26'0 0.0
2018-Jun-09 05:59N 36°08' W 005°26'0 0.0
2018-Jun-09 04:41N 36°08' W 005°26'0 0.0
2018-Jun-09 02:23N 36°08' W 005°26'0 0.0
2018-Jun-09 01:59N 36°08' W 005°26'  
Track history (hours):
 
Tides and Currents Weather Stations Pressure Air Temp Water Temp Dewpoint Dewpoint Depression Visibility Wind Speed Wind Dir Waves Ship Positions

Maestro Sun

Last reported at 2018-Jun-19 00:54 UTC. Time now 2018-Jun-19 04:39 UTC.
Position N 36°08' W 005°26'.

; draft 4.7 m.

Type: Ship (hazmat cat A). MMSI: 538001857.

Date/timePositionNaut miles runAvg speedWind from/ knotsBaromVisibWave heightAir tempDewpointWater temp
2018-Jun-19 00:54N 36°08' W 005°26'0 0.0
2018-Jun-18 23:18N 36°08' W 005°26'0 0.0
2018-Jun-18 21:50N 36°08' W 005°26'4 2.9
2018-Jun-18 20:34N 36°05' W 005°24'114.8
2018-Jun-18 20:30N 36°04' W 005°24'714.8
2018-Jun-18 20:00N 35°57' W 005°28'3 0.5
2018-Jun-18 14:50N 35°57' W 005°31'513.5
2018-Jun-18 14:30N 35°60' W 005°27'4 0.5
2018-Jun-18 06:23N 36°02' W 005°24'514.0
2018-Jun-18 06:00N 35°58' W 005°27'6 1.0
2018-Jun-18 00:02N 35°53' W 005°31'1 5.8
2018-Jun-17 23:56N 35°54' W 005°31'4 9.8
2018-Jun-17 23:30N 35°58' W 005°29'611.6
2018-Jun-17 23:00N 36°02' W 005°25'6 1.6
2018-Jun-17 19:30N 36°08' W 005°26'0 0.0
2018-Jun-17 19:00N 36°08' W 005°26'0 0.0
2018-Jun-17 15:06N 36°08' W 005°26'0 0.0
2018-Jun-17 14:54N 36°08' W 005°26'0 0.0
2018-Jun-17 14:30N 36°08' W 005°26'0 0.0
2018-Jun-17 14:00N 36°08' W 005°26'0 0.0
2018-Jun-17 13:24N 36°08' W 005°26'0 0.0
2018-Jun-17 13:00N 36°08' W 005°26'0 0.0
2018-Jun-17 12:30N 36°08' W 005°26'0 0.0
2018-Jun-17 08:48N 36°08' W 005°26'0 0.0
2018-Jun-17 08:30N 36°08' W 005°26'0 0.0
2018-Jun-17 08:00N 36°08' W 005°26'0 0.0
2018-Jun-17 07:30N 36°08' W 005°26'0 0.0
2018-Jun-17 06:48N 36°08' W 005°26'0 0.0
2018-Jun-17 06:30N 36°08' W 005°26'0 0.0
2018-Jun-17 06:00N 36°08' W 005°26'0 0.0
2018-Jun-17 05:24N 36°08' W 005°26'0 0.0
2018-Jun-17 05:00N 36°08' W 005°26'0 0.0
2018-Jun-17 04:24N 36°08' W 005°26'0 0.0
2018-Jun-17 03:54N 36°08' W 005°26'0 0.0
2018-Jun-17 03:30N 36°08' W 005°26'0 0.0
2018-Jun-17 03:00N 36°08' W 005°26'0 0.0
2018-Jun-17 02:30N 36°08' W 005°26'0 0.0
2018-Jun-17 02:00N 36°08' W 005°26'0 0.0
2018-Jun-17 01:24N 36°08' W 005°26'0 0.0
2018-Jun-17 01:00N 36°08' W 005°26'0 0.0
2018-Jun-17 00:30N 36°08' W 005°26'0 0.0
2018-Jun-17 00:00N 36°08' W 005°26'0 0.0
2018-Jun-16 23:30N 36°08' W 005°26'0 0.0
2018-Jun-16 23:00N 36°08' W 005°26'0 0.0
2018-Jun-16 22:30N 36°08' W 005°26'0 0.0
2018-Jun-16 22:00N 36°08' W 005°26'0 0.0
2018-Jun-16 21:30N 36°08' W 005°26'0 0.0
2018-Jun-16 20:54N 36°08' W 005°26'0 0.0
2018-Jun-16 20:30N 36°08' W 005°26'0 0.0
2018-Jun-16 20:00N 36°08' W 005°26'0 0.0
2018-Jun-16 19:30N 36°08' W 005°26'0 0.0
2018-Jun-16 15:24N 36°08' W 005°26'5 0.6
2018-Jun-16 06:56N 36°03' W 005°23'9 1.0
2018-Jun-15 22:29N 35°56' W 005°30'612.4
2018-Jun-15 22:00N 36°01' W 005°26'611.7
2018-Jun-15 21:30N 36°07' W 005°24'2 4.2
2018-Jun-15 21:00N 36°08' W 005°26'0 0.0
2018-Jun-15 20:24N 36°08' W 005°26'0 0.0
2018-Jun-15 19:48N 36°08' W 005°26'0 0.0
2018-Jun-15 19:24N 36°08' W 005°26'0 0.0
2018-Jun-15 19:00N 36°08' W 005°26'0 0.0
2018-Jun-15 18:18N 36°08' W 005°26'0 0.0
2018-Jun-15 17:48N 36°08' W 005°26'5 0.9
2018-Jun-15 12:20N 36°04' W 005°22'513.3
2018-Jun-15 12:00N 35°59' W 005°25'5 1.0
2018-Jun-15 06:55N 35°56' W 005°30'511.0
2018-Jun-15 06:30N 36°00' W 005°27'610.5
2018-Jun-15 05:56N 36°06' W 005°23'3 7.8
2018-Jun-15 05:30N 36°08' W 005°26'0 1.0
2018-Jun-15 05:00N 36°08' W 005°26'0 0.0
2018-Jun-15 04:28N 36°08' W 005°26'0 0.0
2018-Jun-15 03:58N 36°08' W 005°26'0 0.0
2018-Jun-15 03:28N 36°08' W 005°26'0 0.0
2018-Jun-15 02:58N 36°08' W 005°26'0 0.0
2018-Jun-15 02:28N 36°08' W 005°26'0 0.0
2018-Jun-15 01:58N 36°08' W 005°26'0 0.0
2018-Jun-15 01:28N 36°08' W 005°26'0 0.0
2018-Jun-15 00:58N 36°08' W 005°26'0 0.0
2018-Jun-15 00:28N 36°08' W 005°26'1 1.6
2018-Jun-15 00:00N 36°08' W 005°26'4 8.8
2018-Jun-14 23:30N 36°04' W 005°24'714.7
2018-Jun-14 23:00N 35°58' W 005°28'3 0.3
2018-Jun-14 13:46N 35°56' W 005°30'311.5
2018-Jun-14 13:30N 35°59' W 005°28'5 9.9
2018-Jun-14 13:00N 36°03' W 005°24'611.9
2018-Jun-14 12:30N 36°09' W 005°25'5 0.8
2018-Jun-14 06:17N 36°04' W 005°23'414.5
2018-Jun-14 06:01N 35°60' W 005°24'6 0.7
2018-Jun-13 21:23N 35°56' W 005°31'411.5
2018-Jun-13 21:00N 35°60' W 005°27'510.5
2018-Jun-13 20:30N 36°05' W 005°24'4 8.3
2018-Jun-13 20:00N 36°08' W 005°26'6 0.9
2018-Jun-13 12:48N 36°02' W 005°23'515.3
2018-Jun-13 12:30N 35°58' W 005°26'6 1.0
2018-Jun-13 06:04N 35°54' W 005°31'1 5.5
2018-Jun-13 05:50N 35°55' W 005°31'410.7
2018-Jun-13 05:30N 35°58' W 005°29'5 9.5
2018-Jun-13 05:00N 36°02' W 005°25'612.2
2018-Jun-13 04:30N 36°08' W 005°24'2 3.1
2018-Jun-13 04:00N 36°08' W 005°26'0 0.0
2018-Jun-13 03:28N 36°08' W 005°26'0 0.0
2018-Jun-13 02:46N 36°08' W 005°26'0 0.0
2018-Jun-13 02:28N 36°08' W 005°26'0 0.0
2018-Jun-13 01:58N 36°08' W 005°26'0 0.0
2018-Jun-13 01:28N 36°08' W 005°26'0 0.0
2018-Jun-13 00:58N 36°08' W 005°26'0 0.0
2018-Jun-13 00:28N 36°08' W 005°26'0 0.0
2018-Jun-12 23:58N 36°08' W 005°26'5 3.7
2018-Jun-12 22:35N 36°03' W 005°23'115.9
2018-Jun-12 22:30N 36°02' W 005°24'8 0.9
2018-Jun-12 14:05N 35°56' W 005°30'111.6
2018-Jun-12 14:00N 35°57' W 005°29'610.4
2018-Jun-12 13:28N 36°02' W 005°25'6 0.7
2018-Jun-12 05:19N 36°08' W 005°26'0 0.0
2018-Jun-12 04:58N 36°08' W 005°26'0 0.0
2018-Jun-12 04:04N 36°08' W 005°26'0 0.0
2018-Jun-12 03:58N 36°08' W 005°26'0 0.0
2018-Jun-12 03:25N 36°08' W 005°26'0 0.0
2018-Jun-12 02:58N 36°08' W 005°26'0 0.0
2018-Jun-12 02:28N 36°08' W 005°26'0 0.0
2018-Jun-12 01:58N 36°08' W 005°26'0 0.0
2018-Jun-12 01:28N 36°08' W 005°26'0 0.0
2018-Jun-12 00:52N 36°08' W 005°26'0 0.0
2018-Jun-12 00:11N 36°08' W 005°26'0 0.0
2018-Jun-11 23:59N 36°08' W 005°26'0 0.3
2018-Jun-11 23:30N 36°08' W 005°26'1 2.7
2018-Jun-11 22:59N 36°08' W 005°24'612.3
2018-Jun-11 22:30N 36°03' W 005°24'6 0.4
2018-Jun-11 06:42N 36°08' W 005°24'510.7
2018-Jun-11 06:14N 36°03' W 005°23'415.7
2018-Jun-11 06:00N 36°00' W 005°24'816.2
2018-Jun-11 05:30N 35°54' W 005°31'3 0.3
2018-Jun-10 21:36N 35°56' W 005°30'112.6
2018-Jun-10 21:30N 35°57' W 005°30'611.4
2018-Jun-10 21:00N 36°02' W 005°25'612.6
2018-Jun-10 20:30N 36°08' W 005°24'1 2.4
2018-Jun-10 19:57N 36°08' W 005°26'0 0.0
2018-Jun-10 19:27N 36°08' W 005°26'0 0.0
2018-Jun-10 18:57N 36°08' W 005°26'0 0.0
2018-Jun-10 18:24N 36°08' W 005°26'0 0.0
2018-Jun-10 17:57N 36°08' W 005°26'0 0.0
2018-Jun-10 17:12N 36°08' W 005°26'0 0.0
2018-Jun-10 16:57N 36°08' W 005°26'0 0.0
2018-Jun-10 16:27N 36°08' W 005°26'0 0.0
2018-Jun-10 14:57N 36°08' W 005°26'2 2.9
2018-Jun-10 14:26N 36°09' W 005°25'3 2.2
2018-Jun-10 13:07N 36°07' W 005°23'2 8.9
2018-Jun-10 12:56N 36°05' W 005°23'614.7
2018-Jun-10 12:30N 35°59' W 005°25'7 1.1
2018-Jun-10 06:10N 35°54' W 005°31'1 2.9
2018-Jun-10 05:52N 35°55' W 005°31'2 6.4
2018-Jun-10 05:30N 35°57' W 005°30'510.9
2018-Jun-10 05:00N 36°00' W 005°25'611.8
2018-Jun-10 04:30N 36°06' W 005°24'2 4.1
2018-Jun-10 04:00N 36°08' W 005°26'0 0.0
2018-Jun-10 03:27N 36°08' W 005°26'0 0.0
2018-Jun-10 02:57N 36°08' W 005°26'0 0.0
2018-Jun-10 02:27N 36°08' W 005°26'0 0.0
2018-Jun-10 01:57N 36°08' W 005°26'0 0.0
2018-Jun-10 01:27N 36°08' W 005°26'0 0.0
2018-Jun-10 00:57N 36°08' W 005°26'0 0.0
2018-Jun-10 00:27N 36°08' W 005°26'0 0.0
2018-Jun-09 23:57N 36°08' W 005°26'0 0.0
2018-Jun-09 23:30N 36°08' W 005°26'2 3.0
2018-Jun-09 23:00N 36°08' W 005°24'713.8
2018-Jun-09 22:30N 36°01' W 005°25'9 1.1
2018-Jun-09 14:25N 35°54' W 005°31'3 5.4
2018-Jun-09 13:56N 35°56' W 005°30'511.4
2018-Jun-09 13:30N 36°00' W 005°27'611.2
2018-Jun-09 13:00N 36°05' W 005°24'3 6.2
2018-Jun-09 12:30N 36°08' W 005°26'0 0.3
2018-Jun-09 11:59N 36°08' W 005°26'0 0.0
2018-Jun-09 11:29N 36°08' W 005°26'0 0.0
2018-Jun-09 10:56N 36°08' W 005°26'0 0.0
2018-Jun-09 10:29N 36°08' W 005°26'0 0.0
2018-Jun-09 09:59N 36°08' W 005°26'0 0.0
2018-Jun-09 06:17N 36°08' W 005°26'0 0.0
2018-Jun-09 05:59N 36°08' W 005°26'0 0.0
2018-Jun-09 04:41N 36°08' W 005°26'0 0.0
2018-Jun-09 02:23N 36°08' W 005°26'0 0.0
2018-Jun-09 01:59N 36°08' W 005°26'  

Dump ship's entire track history